createdAt,value
2022-12-25T00:01:25.309Z,6.70
2022-12-25T00:03:52.356Z,4.93
2022-12-25T00:06:19.192Z,4.80
2022-12-25T00:08:45.606Z,5.68
2022-12-25T00:11:13.050Z,4.78
2022-12-25T00:13:39.545Z,4.55
2022-12-25T00:16:07.077Z,4.97
2022-12-25T00:18:33.491Z,4.50
2022-12-25T00:21:01.319Z,4.72
2022-12-25T00:23:27.957Z,4.18
2022-12-25T00:25:54.642Z,3.38
2022-12-25T00:28:21.279Z,4.40
2022-12-25T00:30:47.709Z,4.05
2022-12-25T00:33:14.460Z,4.95
2022-12-25T00:35:40.911Z,4.30
2022-12-25T00:38:07.211Z,4.07
2022-12-25T00:40:33.678Z,5.18
2022-12-25T00:43:00.096Z,4.80
2022-12-25T00:45:26.794Z,4.20
2022-12-25T00:47:53.500Z,4.65
2022-12-25T00:50:19.757Z,4.47
2022-12-25T00:52:46.055Z,4.70
2022-12-25T00:55:12.310Z,3.90
2022-12-25T00:57:38.627Z,5.10
2022-12-25T01:00:05.417Z,4.80
2022-12-25T01:02:31.845Z,4.38
2022-12-25T01:04:58.205Z,5.65
2022-12-25T01:07:25.207Z,4.38
2022-12-25T01:10:10.041Z,5.05
2022-12-25T01:12:37.632Z,4.60
2022-12-25T01:15:04.993Z,4.32
2022-12-25T01:17:31.243Z,4.47
2022-12-25T01:19:57.530Z,4.63
2022-12-25T01:22:23.903Z,3.90
2022-12-25T01:24:50.223Z,4.53
2022-12-25T01:27:16.776Z,4.97
2022-12-25T01:29:43.195Z,4.40
2022-12-25T01:32:09.540Z,5.47
2022-12-25T01:34:35.987Z,3.78
2022-12-25T01:37:02.370Z,5.10
2022-12-25T01:39:28.793Z,4.75
2022-12-25T01:41:55.070Z,3.50
2022-12-25T01:44:36.565Z,4.35
2022-12-25T01:47:04.141Z,5.10
2022-12-25T01:49:31.778Z,4.15
2022-12-25T01:52:04.205Z,4.60
2022-12-25T01:54:33.251Z,4.78
2022-12-25T01:57:01.067Z,4.78
2022-12-25T01:59:27.824Z,4.60
2022-12-25T02:01:54.394Z,4.57
2022-12-25T02:04:38.676Z,4.70
2022-12-25T02:07:09.798Z,4.40
2022-12-25T02:12:02.548Z,3.85
2022-12-25T02:14:31.457Z,3.45
2022-12-25T02:17:03.675Z,4.05
2022-12-25T02:19:48.716Z,4.93
2022-12-25T02:22:15.121Z,4.55
2022-12-25T02:25:00.246Z,3.65
2022-12-25T02:27:45.275Z,4.53
2022-12-25T02:30:11.749Z,4.55
2022-12-25T02:32:43.959Z,5.07
2022-12-25T02:35:13.633Z,3.67
2022-12-25T02:37:43.769Z,4.70
2022-12-25T02:40:22.623Z,3.87
2022-12-25T02:43:10.604Z,4.88
2022-12-25T02:45:58.597Z,4.50
2022-12-25T02:48:45.218Z,3.53
2022-12-25T02:51:33.528Z,4.80
2022-12-25T02:54:19.987Z,4.03
2022-12-25T02:57:06.268Z,3.42
2022-12-25T02:59:52.055Z,4.57
2022-12-25T03:02:36.942Z,4.30
2022-12-25T03:05:24.130Z,3.95
2022-12-25T03:07:51.080Z,4.13
2022-12-25T03:10:37.144Z,4.90
2022-12-25T03:13:09.651Z,4.80
2022-12-25T03:15:54.719Z,3.60
2022-12-25T03:18:24.307Z,4.55
2022-12-25T03:21:12.490Z,4.60
2022-12-25T03:23:58.775Z,3.92
2022-12-25T03:26:45.049Z,3.70
2022-12-25T03:29:31.991Z,5.47
2022-12-25T03:32:04.273Z,4.28
2022-12-25T03:34:54.426Z,3.83
2022-12-25T03:37:44.052Z,3.47
2022-12-25T03:40:49.091Z,4.15
2022-12-25T03:43:47.457Z,3.90
2022-12-25T03:46:34.829Z,4.43
2022-12-25T03:49:29.151Z,3.55
2022-12-25T03:52:14.900Z,4.47
2022-12-25T03:55:01.827Z,3.75
2022-12-25T03:57:46.580Z,4.40
2022-12-25T04:00:31.718Z,4.88
2022-12-25T04:03:16.691Z,3.25
2022-12-25T04:06:01.450Z,4.55
2022-12-25T04:08:46.204Z,3.40
2022-12-25T04:11:30.831Z,3.60
2022-12-25T04:14:15.763Z,3.58
2022-12-25T04:17:00.445Z,3.50
2022-12-25T04:19:45.208Z,3.55
2022-12-25T04:22:29.976Z,4.00
2022-12-25T04:25:14.927Z,3.55
2022-12-25T04:27:59.606Z,3.42
2022-12-25T04:30:44.441Z,3.88
2022-12-25T04:33:29.311Z,4.22
2022-12-25T04:36:11.684Z,3.30
2022-12-25T04:38:38.948Z,3.47
2022-12-25T04:41:05.652Z,2.95
2022-12-25T04:43:32.083Z,3.80
2022-12-25T04:45:59.230Z,2.55
2022-12-25T04:48:26.352Z,3.88
2022-12-25T04:50:52.820Z,3.40
2022-12-25T04:53:19.520Z,3.47
2022-12-25T04:55:45.808Z,3.10
2022-12-25T04:58:12.174Z,3.42
2022-12-25T05:00:38.643Z,3.55
2022-12-25T05:03:05.036Z,3.00
2022-12-25T05:05:31.475Z,2.83
2022-12-25T05:07:58.048Z,3.47
2022-12-25T05:10:24.302Z,3.08
2022-12-25T05:12:50.860Z,3.30
2022-12-25T05:15:17.380Z,2.95
2022-12-25T05:17:43.651Z,3.85
2022-12-25T05:20:10.006Z,3.10
2022-12-25T05:22:36.220Z,3.42
2022-12-25T05:25:02.518Z,3.47
2022-12-25T05:27:28.738Z,3.17
2022-12-25T05:29:55.194Z,2.97
2022-12-25T05:32:21.469Z,3.13
2022-12-25T05:34:47.725Z,2.95
2022-12-25T05:37:14.042Z,3.08
2022-12-25T05:39:40.340Z,3.15
2022-12-25T05:42:06.659Z,2.75
2022-12-25T05:44:32.973Z,3.88
2022-12-25T05:46:59.292Z,3.55
2022-12-25T05:49:25.618Z,2.75
2022-12-25T05:51:52.324Z,2.97
2022-12-25T05:54:18.737Z,3.67
2022-12-25T05:56:45.016Z,2.60
2022-12-25T05:59:11.337Z,2.53
2022-12-25T06:01:37.640Z,2.67
2022-12-25T06:04:10.188Z,2.60
2022-12-25T06:06:38.559Z,2.92
2022-12-25T06:09:04.840Z,2.47
2022-12-25T06:11:31.067Z,2.38
2022-12-25T06:13:57.403Z,3.20
2022-12-25T06:16:23.680Z,2.47
2022-12-25T06:18:52.127Z,2.75
2022-12-25T06:21:18.432Z,2.90
2022-12-25T06:23:45.278Z,2.58
2022-12-25T06:26:13.150Z,2.42
2022-12-25T06:28:40.019Z,2.58
2022-12-25T06:31:10.317Z,2.58
2022-12-25T06:33:36.727Z,2.42
2022-12-25T06:36:10.472Z,2.40
2022-12-25T06:38:36.830Z,2.80
2022-12-25T06:41:11.074Z,2.22
2022-12-25T06:43:38.033Z,2.33
2022-12-25T06:46:05.787Z,2.65
2022-12-25T06:48:33.005Z,2.35
2022-12-25T06:50:59.442Z,2.40
2022-12-25T06:53:27.022Z,3.05
2022-12-25T06:55:53.338Z,2.20
2022-12-25T06:58:19.739Z,2.40
2022-12-25T07:00:46.148Z,2.22
2022-12-25T07:03:16.286Z,2.25
2022-12-25T07:05:44.765Z,2.20
2022-12-25T07:08:11.039Z,2.25
2022-12-25T07:10:37.346Z,2.38
2022-12-25T07:13:03.632Z,2.40
2022-12-25T07:15:29.983Z,2.33
2022-12-25T07:17:56.313Z,2.22
2022-12-25T07:20:22.629Z,2.72
2022-12-25T07:22:50.047Z,2.60
2022-12-25T07:25:16.457Z,2.05
2022-12-25T07:27:42.772Z,2.30
2022-12-25T07:30:09.351Z,2.28
2022-12-25T07:32:35.584Z,2.58
2022-12-25T07:35:01.875Z,2.58
2022-12-25T07:37:28.123Z,2.45
2022-12-25T07:39:54.460Z,2.72
2022-12-25T07:42:25.111Z,2.88
2022-12-25T07:44:51.779Z,2.78
2022-12-25T07:47:18.081Z,2.13
2022-12-25T07:49:44.397Z,2.53
2022-12-25T07:52:10.695Z,3.05
2022-12-25T07:54:37.122Z,2.72
2022-12-25T07:57:03.498Z,2.28
2022-12-25T07:59:29.778Z,2.72
2022-12-25T08:01:56.428Z,3.45
2022-12-25T08:04:22.955Z,3.08
2022-12-25T08:06:49.323Z,3.28
2022-12-25T08:09:15.611Z,3.25
2022-12-25T08:11:45.260Z,2.00
2022-12-25T08:14:11.627Z,2.25
2022-12-25T08:16:42.128Z,1.90
2022-12-25T08:19:09.124Z,2.30
2022-12-25T08:21:35.626Z,1.90
2022-12-25T08:24:03.159Z,2.67
2022-12-25T08:26:29.666Z,2.38
2022-12-25T08:28:56.138Z,2.17
2022-12-25T08:31:26.730Z,2.00
2022-12-25T08:33:54.547Z,2.03
2022-12-25T08:36:21.271Z,2.13
2022-12-25T08:38:47.962Z,2.13
2022-12-25T08:41:14.753Z,2.05
2022-12-25T08:43:41.336Z,2.10
2022-12-25T08:46:08.085Z,2.15
2022-12-25T08:48:34.399Z,2.35
2022-12-25T08:51:01.494Z,2.65
2022-12-25T08:53:27.756Z,2.05
2022-12-25T08:56:01.233Z,2.83
2022-12-25T08:58:27.993Z,2.05
2022-12-25T09:00:54.438Z,2.13
2022-12-25T09:03:21.302Z,2.38
2022-12-25T09:05:47.805Z,3.17
2022-12-25T09:08:14.137Z,3.10
2022-12-25T09:10:40.856Z,2.78
2022-12-25T09:13:07.142Z,2.28
2022-12-25T09:15:33.482Z,2.70
2022-12-25T09:17:59.789Z,2.40
2022-12-25T09:20:26.145Z,1.83
2022-12-25T09:22:52.415Z,2.40
2022-12-25T09:25:18.799Z,2.83
2022-12-25T09:27:45.168Z,2.72
2022-12-25T09:30:11.518Z,2.35
2022-12-25T09:32:40.211Z,3.55
2022-12-25T09:35:07.287Z,2.90
2022-12-25T09:37:33.809Z,3.10
2022-12-25T09:40:00.090Z,2.15
2022-12-25T09:42:31.425Z,2.60
2022-12-25T09:45:00.538Z,2.60
2022-12-25T09:47:29.448Z,2.67
2022-12-25T09:50:00.372Z,2.70
2022-12-25T09:54:56.545Z,2.45
2022-12-25T09:57:24.305Z,2.92
2022-12-25T09:59:51.376Z,3.28
2022-12-25T10:02:29.357Z,3.25
2022-12-25T10:05:08.480Z,3.00
2022-12-25T10:07:45.135Z,2.88
2022-12-25T10:10:19.869Z,3.03
2022-12-25T10:13:04.578Z,2.85
2022-12-25T10:16:00.293Z,2.50
2022-12-25T10:18:49.539Z,8.25
2022-12-25T10:21:18.129Z,4.57
2022-12-25T10:23:47.912Z,2.45
2022-12-25T10:26:15.647Z,2.80
2022-12-25T10:28:43.876Z,2.40
2022-12-25T10:31:15.984Z,2.67
2022-12-25T10:33:42.371Z,2.17
2022-12-25T10:36:09.602Z,2.55
2022-12-25T10:38:36.574Z,3.13
2022-12-25T10:41:16.826Z,3.10
2022-12-25T10:43:45.396Z,2.83
2022-12-25T10:46:12.505Z,2.85
2022-12-25T10:48:49.794Z,2.72
2022-12-25T10:51:26.541Z,2.63
2022-12-25T10:53:52.778Z,2.70
2022-12-25T10:56:19.089Z,2.63
2022-12-25T10:58:45.633Z,2.85
2022-12-25T11:01:12.508Z,4.57
2022-12-25T11:03:39.969Z,2.95
2022-12-25T11:06:23.290Z,2.83
2022-12-25T11:09:01.122Z,2.55
2022-12-25T11:11:28.401Z,2.75
2022-12-25T11:13:56.877Z,1.92
2022-12-25T11:16:28.065Z,3.13
2022-12-25T11:18:54.730Z,2.90
2022-12-25T11:21:31.085Z,2.90
2022-12-25T11:23:58.991Z,2.22
2022-12-25T11:26:25.896Z,3.03
2022-12-25T11:28:53.491Z,2.90
2022-12-25T11:31:21.324Z,3.80
2022-12-25T11:33:54.013Z,3.72
2022-12-25T11:36:39.098Z,3.72
2022-12-25T11:39:14.145Z,41.58
2022-12-25T11:41:41.486Z,25.45
2022-12-25T11:44:14.692Z,22.35
2022-12-25T11:46:45.889Z,10.13
2022-12-25T11:49:14.427Z,13.38
2022-12-25T11:51:41.957Z,7.03
2022-12-25T11:54:11.308Z,6.20
2022-12-25T11:56:37.683Z,10.05
2022-12-25T11:59:09.838Z,3.85
2022-12-25T12:01:50.085Z,3.40
2022-12-25T12:04:29.606Z,2.75
2022-12-25T12:07:07.380Z,3.22
2022-12-25T12:09:40.703Z,2.45
2022-12-25T12:12:11.381Z,3.40
2022-12-25T12:15:00.221Z,3.33
2022-12-25T12:17:26.698Z,3.00
2022-12-25T12:19:52.984Z,2.75
2022-12-25T12:22:23.707Z,3.13
2022-12-25T12:24:59.771Z,3.70
2022-12-25T12:27:35.472Z,2.88
2022-12-25T12:30:04.559Z,3.15
2022-12-25T12:32:36.126Z,2.83
2022-12-25T12:35:15.834Z,3.40
2022-12-25T12:37:42.533Z,2.75
2022-12-25T12:40:21.608Z,2.88
2022-12-25T12:42:50.449Z,3.47
2022-12-25T12:45:18.956Z,3.15
2022-12-25T12:47:47.674Z,2.78
2022-12-25T12:50:32.258Z,3.53
2022-12-25T12:52:59.199Z,3.40
2022-12-25T12:55:35.367Z,3.22
2022-12-25T12:58:03.498Z,3.65
2022-12-25T13:00:36.385Z,3.45
2022-12-25T13:03:14.027Z,4.10
2022-12-25T13:05:43.448Z,3.88
2022-12-25T13:08:28.346Z,4.03
2022-12-25T13:11:19.608Z,4.15
2022-12-25T13:13:47.003Z,4.13
2022-12-25T13:16:17.556Z,4.80
2022-12-25T13:18:43.916Z,3.95
2022-12-25T13:21:16.333Z,4.28
2022-12-25T13:23:42.603Z,4.50
2022-12-25T13:26:13.943Z,4.40
2022-12-25T13:28:40.292Z,4.30
2022-12-25T13:31:11.759Z,3.88
2022-12-25T13:33:38.491Z,4.38
2022-12-25T13:36:05.718Z,4.38
2022-12-25T13:38:32.125Z,4.03
2022-12-25T13:41:17.507Z,4.70
2022-12-25T13:43:44.596Z,3.85
2022-12-25T13:46:14.725Z,4.15
2022-12-25T13:48:41.784Z,6.40
2022-12-25T13:51:15.839Z,5.60
2022-12-25T13:53:42.777Z,4.82
2022-12-25T13:56:12.578Z,5.32
2022-12-25T13:58:39.477Z,4.50
2022-12-25T14:01:06.419Z,4.47
2022-12-25T14:03:32.801Z,4.57
2022-12-25T14:06:00.224Z,5.65
2022-12-25T14:08:28.065Z,4.50
2022-12-25T14:10:55.063Z,4.70
2022-12-25T14:13:23.374Z,5.13
2022-12-25T14:15:50.490Z,5.90
2022-12-25T14:18:18.370Z,6.03
2022-12-25T14:21:13.776Z,5.55
2022-12-25T14:23:45.057Z,4.88
2022-12-25T14:26:30.565Z,5.03
2022-12-25T14:29:12.208Z,5.63
2022-12-25T14:31:43.210Z,5.28
2022-12-25T14:34:21.093Z,6.20
2022-12-25T14:36:47.796Z,5.07
2022-12-25T14:39:32.363Z,7.07
2022-12-25T14:41:58.679Z,8.15
2022-12-25T14:44:25.408Z,7.50
2022-12-25T14:47:02.444Z,5.78
2022-12-25T14:49:30.980Z,6.55
2022-12-25T14:51:57.664Z,5.65
2022-12-25T14:54:24.595Z,6.80
2022-12-25T14:56:51.742Z,6.18
2022-12-25T14:59:19.553Z,5.05
2022-12-25T15:01:50.713Z,5.45
2022-12-25T15:04:17.536Z,5.80
2022-12-25T15:07:08.338Z,5.53
2022-12-25T15:09:35.880Z,5.43
2022-12-25T15:12:02.400Z,4.97
2022-12-25T15:14:30.034Z,4.97
2022-12-25T15:16:57.901Z,5.10
2022-12-25T15:19:36.924Z,3.53
2022-12-25T15:22:03.966Z,5.13
2022-12-25T15:24:30.258Z,5.20
2022-12-25T15:27:00.078Z,4.38
2022-12-25T15:29:52.178Z,6.03
2022-12-25T15:32:17.554Z,3.60
2022-12-25T15:34:46.097Z,4.80
2022-12-25T15:37:13.271Z,4.78
2022-12-25T15:39:39.552Z,5.18
2022-12-25T15:42:15.800Z,4.60
2022-12-25T15:44:42.524Z,4.43
2022-12-25T15:47:09.681Z,5.18
2022-12-25T15:49:35.984Z,6.72
2022-12-25T15:52:03.636Z,6.18
2022-12-25T15:54:31.591Z,6.07
2022-12-25T15:57:00.184Z,6.13
2022-12-25T15:59:26.473Z,4.50
2022-12-25T16:01:54.280Z,4.38
2022-12-25T16:04:21.355Z,5.30
2022-12-25T16:06:48.055Z,4.70
2022-12-25T16:09:15.396Z,4.03
2022-12-25T16:11:42.388Z,4.03
2022-12-25T16:14:09.048Z,4.88
2022-12-25T16:16:35.402Z,4.90
2022-12-25T16:19:02.307Z,4.25
2022-12-25T16:21:32.043Z,8.07
2022-12-25T16:23:58.420Z,8.40
2022-12-25T16:26:24.709Z,10.65
2022-12-25T16:28:51.048Z,10.15
2022-12-25T16:31:17.351Z,8.20
2022-12-25T16:33:43.751Z,8.80
2022-12-25T16:36:10.001Z,8.07
2022-12-25T16:38:36.764Z,7.18
2022-12-25T16:41:03.138Z,5.28
2022-12-25T16:43:29.435Z,5.05
2022-12-25T16:45:57.826Z,7.38
2022-12-25T16:48:24.127Z,4.93
2022-12-25T16:50:50.399Z,8.57
2022-12-25T16:53:16.703Z,7.03
2022-12-25T16:55:43.004Z,7.18
2022-12-25T16:58:09.435Z,7.35
2022-12-25T17:00:35.854Z,7.38
2022-12-25T17:03:02.490Z,6.22
2022-12-25T17:05:29.021Z,32.42
2022-12-25T17:07:55.421Z,23.88
2022-12-25T17:10:21.738Z,16.98
2022-12-25T17:12:48.098Z,19.38
2022-12-25T17:15:14.551Z,11.20
2022-12-25T17:17:41.598Z,8.15
2022-12-25T17:20:08.233Z,6.40
2022-12-25T17:22:34.610Z,5.93
2022-12-25T17:25:00.943Z,4.75
2022-12-25T17:27:27.554Z,4.45
2022-12-25T17:29:53.817Z,4.03
2022-12-25T17:32:20.171Z,4.78
2022-12-25T17:34:46.804Z,6.90
2022-12-25T17:37:13.152Z,5.13
2022-12-25T17:39:39.523Z,7.45
2022-12-25T17:42:05.773Z,6.72
2022-12-25T17:44:32.064Z,5.63
2022-12-25T17:46:58.408Z,6.45
2022-12-25T17:49:25.018Z,5.93
2022-12-25T17:51:51.493Z,7.63
2022-12-25T17:54:17.813Z,8.00
2022-12-25T17:56:44.203Z,8.70
2022-12-25T17:59:17.985Z,10.50
2022-12-25T18:01:44.765Z,7.68
2022-12-25T18:04:11.252Z,6.43
2022-12-25T18:06:37.559Z,5.57
2022-12-25T18:09:06.087Z,5.85
2022-12-25T18:11:33.130Z,6.65
2022-12-25T18:14:03.450Z,9.68
2022-12-25T18:16:31.028Z,7.32
2022-12-25T18:18:59.471Z,10.38
2022-12-25T18:21:26.576Z,5.47
2022-12-25T18:23:52.916Z,7.03
2022-12-25T18:26:19.750Z,6.93
2022-12-25T18:28:47.149Z,5.68
2022-12-25T18:31:15.016Z,5.40
2022-12-25T18:33:41.727Z,4.90
2022-12-25T18:36:08.134Z,5.22
2022-12-25T18:38:35.459Z,4.90
2022-12-25T18:41:04.021Z,6.10
2022-12-25T18:43:52.222Z,4.80
2022-12-25T18:46:17.770Z,5.00
2022-12-25T18:48:44.373Z,5.95
2022-12-25T18:51:12.224Z,5.90
2022-12-25T18:53:38.530Z,5.57
2022-12-25T18:56:07.541Z,8.82
2022-12-25T18:58:34.531Z,9.65
2022-12-25T19:01:00.888Z,12.48
2022-12-25T19:03:27.306Z,13.80
2022-12-25T19:05:53.711Z,15.43
2022-12-25T19:08:20.076Z,17.50
2022-12-25T19:10:46.298Z,19.27
2022-12-25T19:13:12.619Z,16.98
2022-12-25T19:15:42.585Z,16.08
2022-12-25T19:18:08.852Z,16.67
2022-12-25T19:20:37.698Z,11.15
2022-12-25T19:23:03.957Z,11.68
2022-12-25T19:25:30.181Z,10.07
2022-12-25T19:27:56.568Z,9.52
2022-12-25T19:30:22.837Z,12.70
2022-12-25T19:32:49.186Z,15.13
2022-12-25T19:35:15.438Z,14.50
2022-12-25T19:37:41.736Z,15.70
2022-12-25T19:40:08.460Z,16.15
2022-12-25T19:42:34.820Z,11.70
2022-12-25T19:45:02.961Z,11.18
2022-12-25T19:47:29.195Z,13.13
2022-12-25T19:49:59.571Z,10.10
2022-12-25T19:52:28.530Z,10.13
2022-12-25T19:54:54.812Z,9.18
2022-12-25T19:57:21.091Z,10.00
2022-12-25T19:59:48.780Z,9.68
2022-12-25T20:02:15.120Z,7.63
2022-12-25T20:04:41.458Z,8.65
2022-12-25T20:07:07.844Z,10.25
2022-12-25T20:09:34.162Z,9.68
2022-12-25T20:12:00.416Z,7.57
2022-12-25T20:14:26.723Z,8.15
2022-12-25T20:16:53.088Z,8.18
2022-12-25T20:19:19.435Z,8.43
2022-12-25T20:21:45.744Z,8.50
2022-12-25T20:24:12.274Z,10.45
2022-12-25T20:26:39.197Z,10.38
2022-12-25T20:29:05.681Z,8.43
2022-12-25T20:31:32.950Z,8.18
2022-12-25T20:34:00.414Z,9.15
2022-12-25T20:36:31.185Z,9.55
2022-12-25T20:39:02.637Z,8.93
2022-12-25T20:41:29.860Z,8.90
2022-12-25T20:43:56.914Z,7.88
2022-12-25T20:46:23.815Z,9.05
2022-12-25T20:48:50.416Z,9.43
2022-12-25T20:51:17.702Z,10.38
2022-12-25T20:53:44.375Z,9.68
2022-12-25T20:56:11.607Z,49.25
2022-12-25T20:58:37.965Z,9.05
2022-12-25T21:01:08.218Z,7.72
2022-12-25T21:03:35.257Z,8.05
2022-12-25T21:06:02.159Z,7.20
2022-12-25T21:08:28.895Z,6.78
2022-12-25T21:11:00.407Z,6.43
2022-12-25T21:13:34.415Z,5.85
2022-12-25T21:16:00.833Z,5.10
2022-12-25T21:18:27.933Z,5.30
2022-12-25T21:20:56.085Z,5.85
2022-12-25T21:23:22.746Z,5.68
2022-12-25T21:25:49.435Z,5.43
2022-12-25T21:28:16.183Z,6.10
2022-12-25T21:30:42.509Z,5.55
2022-12-25T21:33:30.130Z,5.78
2022-12-25T21:35:56.639Z,5.97
2022-12-25T21:38:22.906Z,6.05
2022-12-25T21:40:49.153Z,6.47
2022-12-25T21:43:15.489Z,6.00
2022-12-25T21:45:41.874Z,5.63
2022-12-25T21:48:08.398Z,6.35
2022-12-25T21:50:53.342Z,6.60
2022-12-25T21:53:20.010Z,6.63
2022-12-25T21:56:02.524Z,6.90
2022-12-25T21:58:29.263Z,6.40
2022-12-25T22:00:55.680Z,8.90
2022-12-25T22:03:23.369Z,7.00
2022-12-25T22:06:08.138Z,6.38
2022-12-25T22:08:34.500Z,6.68
2022-12-25T22:11:04.103Z,9.48
2022-12-25T22:13:49.014Z,5.85
2022-12-25T22:16:33.932Z,7.20
2022-12-25T22:19:18.686Z,6.60
2022-12-25T22:21:45.042Z,5.28
2022-12-25T22:24:11.280Z,6.15
2022-12-25T22:26:38.627Z,6.45
2022-12-25T22:29:04.961Z,8.02
2022-12-25T22:31:31.294Z,5.47
2022-12-25T22:33:57.684Z,5.50
2022-12-25T22:36:23.946Z,6.25
2022-12-25T22:38:50.260Z,6.20
2022-12-25T22:41:16.533Z,5.82
2022-12-25T22:44:16.005Z,7.20
2022-12-25T22:46:29.222Z,6.43
2022-12-25T22:48:55.598Z,5.63
2022-12-25T22:51:21.995Z,6.00
2022-12-25T22:53:49.933Z,5.85
2022-12-25T22:56:16.344Z,5.75
2022-12-25T22:58:42.680Z,5.88
2022-12-25T23:01:09.246Z,5.32
2022-12-25T23:03:35.762Z,5.68
2022-12-25T23:06:02.448Z,4.50
2022-12-25T23:08:28.784Z,4.45
2022-12-25T23:10:55.078Z,5.07
2022-12-25T23:13:39.995Z,5.32
2022-12-25T23:16:06.413Z,4.80
2022-12-25T23:18:51.542Z,4.68
2022-12-25T23:21:36.872Z,4.60
2022-12-25T23:24:21.445Z,5.47
2022-12-25T23:26:47.711Z,4.22
2022-12-25T23:29:32.551Z,5.40
2022-12-25T23:31:59.045Z,5.05
2022-12-25T23:34:25.336Z,6.38
2022-12-25T23:36:51.680Z,4.55
2022-12-25T23:39:18.006Z,6.00
2022-12-25T23:41:44.449Z,4.53
2022-12-25T23:44:11.536Z,5.28
2022-12-25T23:46:38.543Z,5.22
2022-12-25T23:49:05.355Z,5.93
2022-12-25T23:51:31.663Z,5.35
2022-12-25T23:53:58.091Z,5.80
2022-12-25T23:56:24.310Z,5.60
2022-12-25T23:58:51.925Z,6.53
